createdAt,value
2019-03-20T00:01:16.345Z,70.85
2019-03-20T00:03:42.390Z,70.91
2019-03-20T00:06:08.344Z,70.92
2019-03-20T00:08:34.202Z,70.83
2019-03-20T00:11:00.138Z,70.88
2019-03-20T00:13:26.009Z,70.94
2019-03-20T00:15:51.895Z,70.96
2019-03-20T00:18:17.768Z,70.98
2019-03-20T00:20:44.677Z,70.99
2019-03-20T00:23:10.545Z,70.92
2019-03-20T00:25:36.680Z,70.80
2019-03-20T00:28:02.721Z,70.73
2019-03-20T00:30:28.688Z,70.77
2019-03-20T00:32:54.562Z,70.78
2019-03-20T00:35:20.527Z,70.81
2019-03-20T00:37:46.500Z,70.83
2019-03-20T00:40:13.252Z,70.82
2019-03-20T00:42:39.138Z,70.80
2019-03-20T00:45:06.705Z,70.77
2019-03-20T00:47:32.556Z,70.77
2019-03-20T00:49:58.432Z,70.76
2019-03-20T00:52:24.305Z,70.79
2019-03-20T00:54:52.177Z,70.75
2019-03-20T00:57:18.093Z,70.71
2019-03-20T00:59:43.941Z,70.81
2019-03-20T01:02:09.878Z,70.75
2019-03-20T01:04:35.899Z,70.75
2019-03-20T01:07:01.754Z,70.78
2019-03-20T01:09:27.830Z,70.87
2019-03-20T01:11:53.978Z,70.92
2019-03-20T01:14:19.937Z,70.89
2019-03-20T01:16:45.792Z,70.88
2019-03-20T01:19:11.791Z,70.78
2019-03-20T01:21:37.734Z,70.85
2019-03-20T01:24:03.739Z,70.81
2019-03-20T01:26:29.873Z,70.81
2019-03-20T01:28:56.091Z,70.77
2019-03-20T01:31:21.940Z,70.76
2019-03-20T01:33:47.777Z,70.73
2019-03-20T01:36:13.664Z,70.73
2019-03-20T01:38:39.530Z,70.73
2019-03-20T01:41:05.410Z,70.75
2019-03-20T01:43:31.288Z,70.70
2019-03-20T01:45:57.260Z,70.71
2019-03-20T01:48:23.105Z,70.71
2019-03-20T01:50:48.968Z,70.71
2019-03-20T01:53:14.797Z,70.70
2019-03-20T01:55:40.661Z,70.68
2019-03-20T01:58:06.718Z,70.70
2019-03-20T02:00:32.773Z,70.69
2019-03-20T02:02:58.731Z,70.67
2019-03-20T02:05:35.084Z,70.64
2019-03-20T02:07:52.640Z,70.63
2019-03-20T02:10:18.641Z,70.62
2019-03-20T02:12:44.507Z,70.64
2019-03-20T02:15:11.357Z,70.66
2019-03-20T02:17:37.254Z,70.65
2019-03-20T02:20:04.715Z,70.67
2019-03-20T02:22:30.687Z,70.69
2019-03-20T02:24:56.584Z,70.75
2019-03-20T02:27:22.679Z,70.79
2019-03-20T02:29:48.522Z,70.76
2019-03-20T02:32:14.439Z,70.72
2019-03-20T02:34:40.396Z,70.79
2019-03-20T02:37:06.245Z,70.80
2019-03-20T02:39:32.115Z,70.79
2019-03-20T02:41:57.966Z,70.75
2019-03-20T02:44:23.967Z,70.74
2019-03-20T02:46:49.840Z,70.73
2019-03-20T02:49:15.778Z,70.73
2019-03-20T02:51:41.658Z,70.73
2019-03-20T02:54:07.540Z,70.76
2019-03-20T02:56:33.396Z,70.73
2019-03-20T02:58:59.434Z,70.68
2019-03-20T03:01:25.318Z,70.65
2019-03-20T03:03:53.437Z,70.70
2019-03-20T03:06:19.383Z,70.67
2019-03-20T03:08:45.222Z,70.67
2019-03-20T03:11:11.144Z,70.66
2019-03-20T03:13:37.026Z,70.66
2019-03-20T03:16:03.016Z,70.64
2019-03-20T03:18:28.888Z,70.65
2019-03-20T03:20:54.900Z,70.62
2019-03-20T03:23:20.756Z,70.61
2019-03-20T03:25:49.871Z,70.62
2019-03-20T03:28:14.490Z,70.62
2019-03-20T03:30:40.326Z,70.58
2019-03-20T03:33:06.283Z,70.56
2019-03-20T03:35:32.460Z,70.55
2019-03-20T03:37:58.330Z,70.53
2019-03-20T03:40:24.470Z,70.52
2019-03-20T03:42:50.440Z,70.49
2019-03-20T03:45:16.667Z,70.49
2019-03-20T03:47:42.667Z,70.51
2019-03-20T03:50:08.795Z,70.54
2019-03-20T03:52:34.751Z,70.53
2019-03-20T03:55:00.732Z,70.57
2019-03-20T03:57:26.688Z,70.56
2019-03-20T03:59:52.657Z,70.55
2019-03-20T04:02:18.743Z,70.56
2019-03-20T04:04:44.692Z,70.51
2019-03-20T04:07:10.607Z,70.53
2019-03-20T04:09:36.598Z,70.52
2019-03-20T04:12:02.561Z,70.50
2019-03-20T04:14:28.436Z,70.49
2019-03-20T04:16:54.300Z,70.44
2019-03-20T04:19:20.244Z,70.45
2019-03-20T04:21:46.196Z,70.45
2019-03-20T04:24:12.094Z,70.46
2019-03-20T04:26:38.063Z,70.47
2019-03-20T04:29:04.149Z,70.44
2019-03-20T04:31:30.039Z,70.42
2019-03-20T04:33:57.692Z,70.39
2019-03-20T04:36:23.642Z,70.37
2019-03-20T04:38:49.517Z,70.39
2019-03-20T04:41:15.382Z,70.36
2019-03-20T04:43:41.229Z,70.37
2019-03-20T04:46:07.237Z,70.34
2019-03-20T04:48:33.113Z,70.37
2019-03-20T04:50:58.979Z,70.41
2019-03-20T04:53:24.856Z,70.39
2019-03-20T04:55:50.681Z,70.40
2019-03-20T04:58:16.548Z,70.39
2019-03-20T05:00:42.541Z,70.41
2019-03-20T05:03:08.618Z,70.42
2019-03-20T05:05:34.471Z,70.40
2019-03-20T05:08:00.516Z,70.41
2019-03-20T05:10:26.475Z,70.42
2019-03-20T05:12:52.318Z,70.48
2019-03-20T05:15:18.317Z,70.58
2019-03-20T05:17:44.198Z,70.51
2019-03-20T05:20:11.048Z,70.54
2019-03-20T05:22:36.941Z,70.60
2019-03-20T05:25:03.888Z,70.58
2019-03-20T05:27:29.748Z,70.59
2019-03-20T05:29:55.887Z,70.71
2019-03-20T05:32:21.756Z,70.68
2019-03-20T05:34:47.630Z,70.61
2019-03-20T05:37:13.506Z,70.60
2019-03-20T05:39:39.371Z,70.67
2019-03-20T05:42:05.209Z,70.66
2019-03-20T05:44:31.069Z,70.65
2019-03-20T05:46:57.024Z,70.56
2019-03-20T05:49:22.899Z,70.59
2019-03-20T05:51:48.741Z,70.71
2019-03-20T05:54:14.877Z,70.71
2019-03-20T05:56:40.763Z,70.74
2019-03-20T05:59:06.761Z,70.69
2019-03-20T06:01:32.925Z,70.65
2019-03-20T06:03:58.793Z,70.75
2019-03-20T06:06:26.534Z,70.80
2019-03-20T06:08:52.405Z,70.85
2019-03-20T06:11:18.246Z,70.85
2019-03-20T06:13:44.110Z,70.94
2019-03-20T06:16:09.987Z,70.94
2019-03-20T06:18:35.887Z,71.03
2019-03-20T06:21:01.753Z,71.12
2019-03-20T06:23:27.601Z,71.14
2019-03-20T06:25:53.487Z,71.15
2019-03-20T06:28:19.442Z,71.22
2019-03-20T06:30:45.399Z,71.22
2019-03-20T06:33:11.273Z,71.29
2019-03-20T06:35:37.155Z,71.31
2019-03-20T06:38:03.121Z,71.38
2019-03-20T06:40:29.009Z,71.40
2019-03-20T06:42:55.450Z,71.45
2019-03-20T06:45:22.536Z,71.56
2019-03-20T06:47:48.533Z,71.46
2019-03-20T06:50:14.906Z,71.52
2019-03-20T06:52:40.759Z,71.58
2019-03-20T06:55:07.283Z,71.58
2019-03-20T06:57:33.440Z,71.52
2019-03-20T07:00:17.846Z,71.45
2019-03-20T07:02:44.038Z,71.44
2019-03-20T07:05:14.778Z,71.41
2019-03-20T07:07:44.274Z,71.52
2019-03-20T07:10:10.416Z,71.55
2019-03-20T07:12:36.481Z,71.68
2019-03-20T07:15:02.868Z,71.79
2019-03-20T07:17:29.948Z,71.76
2019-03-20T07:19:55.949Z,71.87
2019-03-20T07:22:21.838Z,71.95
2019-03-20T07:24:47.706Z,71.88
2019-03-20T07:27:13.656Z,71.93
2019-03-20T07:29:39.631Z,71.93
2019-03-20T07:32:05.766Z,72.01
2019-03-20T07:34:31.822Z,71.97
2019-03-20T07:36:57.704Z,71.94
2019-03-20T07:39:23.538Z,71.97
2019-03-20T07:41:49.400Z,71.88
2019-03-20T07:44:15.364Z,71.82
2019-03-20T07:46:41.210Z,71.89
2019-03-20T07:49:07.222Z,71.91
2019-03-20T07:51:33.199Z,71.97
2019-03-20T07:53:59.050Z,71.96
2019-03-20T07:56:25.037Z,72.00
2019-03-20T07:58:50.874Z,72.04
2019-03-20T08:01:16.742Z,72.07
2019-03-20T08:03:42.613Z,72.00
2019-03-20T08:06:08.664Z,72.02
2019-03-20T08:08:34.509Z,72.14
2019-03-20T08:11:00.361Z,72.09
2019-03-20T08:13:26.265Z,72.05
2019-03-20T08:15:52.302Z,72.15
2019-03-20T08:18:18.166Z,72.23
2019-03-20T08:20:44.038Z,72.17
2019-03-20T08:23:09.947Z,72.34
2019-03-20T08:25:36.824Z,72.32
2019-03-20T08:28:02.897Z,72.41
2019-03-20T08:30:28.764Z,72.51
2019-03-20T08:32:54.712Z,72.51
2019-03-20T08:35:20.572Z,72.58
2019-03-20T08:37:46.654Z,72.58
2019-03-20T08:40:14.636Z,72.65
2019-03-20T08:42:40.588Z,72.53
2019-03-20T08:45:08.159Z,72.51
2019-03-20T08:47:34.001Z,72.46
2019-03-20T08:49:59.909Z,72.46
2019-03-20T08:52:25.783Z,72.43
2019-03-20T08:54:51.651Z,72.30
2019-03-20T08:57:17.546Z,72.41
2019-03-20T08:59:43.394Z,72.49
2019-03-20T09:02:09.256Z,72.70
2019-03-20T09:04:35.840Z,72.80
2019-03-20T09:07:01.776Z,72.86
2019-03-20T09:09:27.633Z,73.01
2019-03-20T09:11:53.516Z,73.07
2019-03-20T09:14:19.519Z,73.22
2019-03-20T09:16:45.388Z,73.22
2019-03-20T09:19:11.242Z,73.20
2019-03-20T09:21:37.122Z,72.99
2019-03-20T09:24:03.275Z,72.98
2019-03-20T09:26:29.152Z,72.98
2019-03-20T09:28:55.319Z,73.02
2019-03-20T09:31:21.185Z,73.24
2019-03-20T09:33:47.355Z,73.38
2019-03-20T09:36:13.232Z,73.33
2019-03-20T09:38:43.418Z,73.45
2019-03-20T09:41:06.846Z,73.32
2019-03-20T09:43:32.714Z,73.32
2019-03-20T09:45:58.599Z,73.23
2019-03-20T09:48:24.457Z,73.11
2019-03-20T09:50:50.332Z,73.05
2019-03-20T09:53:16.253Z,72.89
2019-03-20T09:55:42.079Z,72.87
2019-03-20T09:58:11.798Z,73.04
2019-03-20T10:00:35.689Z,73.10
2019-03-20T10:03:01.567Z,73.00
2019-03-20T10:05:27.425Z,72.99
2019-03-20T10:07:53.304Z,72.97
2019-03-20T10:10:25.694Z,72.86
2019-03-20T10:12:51.536Z,72.88
2019-03-20T10:15:18.174Z,72.98
2019-03-20T10:17:44.327Z,73.06
2019-03-20T10:20:11.487Z,73.12
2019-03-20T10:22:39.026Z,73.25
2019-03-20T10:25:06.004Z,73.35
2019-03-20T10:27:31.961Z,73.28
2019-03-20T10:29:58.021Z,73.23
2019-03-20T10:32:23.869Z,73.10
2019-03-20T10:34:49.983Z,72.98
2019-03-20T10:37:15.854Z,72.94
2019-03-20T10:39:41.755Z,72.88
2019-03-20T10:42:07.815Z,72.88
2019-03-20T10:44:33.634Z,72.98
2019-03-20T10:46:59.550Z,73.00
2019-03-20T10:49:25.485Z,73.06
2019-03-20T10:51:51.333Z,73.01
2019-03-20T10:54:17.187Z,72.93
2019-03-20T10:56:43.049Z,72.85
2019-03-20T10:59:09.035Z,72.83
2019-03-20T11:01:42.647Z,72.73
2019-03-20T11:04:02.769Z,72.70
2019-03-20T11:06:28.619Z,72.62
2019-03-20T11:08:55.843Z,72.52
2019-03-20T11:11:27.081Z,72.52
2019-03-20T11:13:49.326Z,72.47
2019-03-20T11:16:15.206Z,72.37
2019-03-20T11:18:41.151Z,72.40
2019-03-20T11:21:07.109Z,72.41
2019-03-20T11:23:33.000Z,72.42
2019-03-20T11:26:00.005Z,72.47
2019-03-20T11:28:26.019Z,72.48
2019-03-20T11:30:51.919Z,72.38
2019-03-20T11:33:17.776Z,72.41
2019-03-20T11:35:43.889Z,72.35
2019-03-20T11:38:09.789Z,72.22
2019-03-20T11:40:36.641Z,72.13
2019-03-20T11:43:02.903Z,71.98
2019-03-20T11:45:28.857Z,71.75
2019-03-20T11:47:54.821Z,71.60
2019-03-20T11:50:28.392Z,71.43
2019-03-20T11:52:54.607Z,71.43
2019-03-20T11:55:20.982Z,71.43
2019-03-20T11:57:49.102Z,71.38
2019-03-20T12:00:16.860Z,71.40
2019-03-20T12:02:42.816Z,71.60
2019-03-20T12:05:08.786Z,71.71
2019-03-20T12:07:34.816Z,71.87
2019-03-20T12:10:00.807Z,71.83
2019-03-20T12:12:26.777Z,71.82
2019-03-20T12:14:52.627Z,71.86
2019-03-20T12:17:20.243Z,71.95
2019-03-20T12:19:46.364Z,71.93
2019-03-20T12:22:12.221Z,71.84
2019-03-20T12:24:38.101Z,71.90
2019-03-20T12:27:14.678Z,71.86
2019-03-20T12:29:31.716Z,71.89
2019-03-20T12:31:57.569Z,71.82
2019-03-20T12:34:25.356Z,71.84
2019-03-20T12:36:51.299Z,71.67
2019-03-20T12:39:18.631Z,71.70
2019-03-20T12:41:44.479Z,71.57
2019-03-20T12:44:10.360Z,71.64
2019-03-20T12:46:41.478Z,71.71
2019-03-20T12:49:04.006Z,71.79
2019-03-20T12:51:29.985Z,71.77
2019-03-20T12:53:55.827Z,71.90
2019-03-20T12:56:21.714Z,71.81
2019-03-20T12:58:47.577Z,71.77
2019-03-20T13:01:13.434Z,71.67
2019-03-20T13:03:39.322Z,71.44
2019-03-20T13:06:05.193Z,71.23
2019-03-20T13:08:31.060Z,71.03
2019-03-20T13:10:57.052Z,70.91
2019-03-20T13:13:24.840Z,70.79
2019-03-20T13:15:50.666Z,70.48
2019-03-20T13:18:16.529Z,70.39
2019-03-20T13:20:42.669Z,70.29
2019-03-20T13:23:13.364Z,70.25
2019-03-20T13:25:39.249Z,70.22
2019-03-20T13:28:05.196Z,70.12
2019-03-20T13:30:32.952Z,70.17
2019-03-20T13:32:58.870Z,70.13
2019-03-20T13:35:24.658Z,69.91
2019-03-20T13:37:50.722Z,69.62
2019-03-20T13:40:16.748Z,69.51
2019-03-20T13:42:42.613Z,69.44
2019-03-20T13:45:13.348Z,69.27
2019-03-20T13:47:39.236Z,69.23
2019-03-20T13:50:07.045Z,69.08
2019-03-20T13:52:32.909Z,69.08
2019-03-20T13:54:58.867Z,69.06
2019-03-20T13:57:24.714Z,68.91
2019-03-20T13:59:50.676Z,68.88
2019-03-20T14:02:16.787Z,68.89
2019-03-20T14:04:42.626Z,68.92
2019-03-20T14:07:08.476Z,68.89
2019-03-20T14:09:34.340Z,68.84
2019-03-20T14:12:00.203Z,68.83
2019-03-20T14:14:26.048Z,68.88
2019-03-20T14:16:51.906Z,68.79
2019-03-20T14:19:17.768Z,68.88
2019-03-20T14:21:43.643Z,68.93
2019-03-20T14:24:09.617Z,68.90
2019-03-20T14:26:35.459Z,68.96
2019-03-20T14:29:01.328Z,69.03
2019-03-20T14:31:27.270Z,69.02
2019-03-20T14:33:53.228Z,69.07
2019-03-20T14:36:19.105Z,69.15
2019-03-20T14:38:45.135Z,69.12
2019-03-20T14:41:17.614Z,69.15
2019-03-20T14:43:38.727Z,69.07
2019-03-20T14:46:04.597Z,69.01
2019-03-20T14:48:30.456Z,68.99
2019-03-20T14:50:56.422Z,69.01
2019-03-20T14:53:22.396Z,69.02
2019-03-20T14:55:48.481Z,69.11
2019-03-20T14:58:14.327Z,69.20
2019-03-20T15:00:40.300Z,69.24
2019-03-20T15:03:06.179Z,69.36
2019-03-20T15:05:32.148Z,69.41
2019-03-20T15:07:58.125Z,69.46
2019-03-20T15:10:24.506Z,69.55
2019-03-20T15:12:50.770Z,69.65
2019-03-20T15:15:21.325Z,69.62
2019-03-20T15:17:47.278Z,69.61
2019-03-20T15:20:13.119Z,69.64
2019-03-20T15:22:39.000Z,69.65
2019-03-20T15:25:06.764Z,69.76
2019-03-20T15:27:32.624Z,69.84
2019-03-20T15:29:58.587Z,69.99
2019-03-20T15:32:24.559Z,69.95
2019-03-20T15:34:50.432Z,69.92
2019-03-20T15:37:16.289Z,69.91
2019-03-20T15:39:42.270Z,69.89
2019-03-20T15:42:08.243Z,69.87
2019-03-20T15:44:34.104Z,69.87
2019-03-20T15:46:59.959Z,69.85
2019-03-20T15:49:25.934Z,69.85
2019-03-20T15:51:51.900Z,69.87
2019-03-20T15:54:17.739Z,69.85
2019-03-20T15:56:43.706Z,69.88
2019-03-20T15:59:09.687Z,69.82
2019-03-20T16:01:35.524Z,69.76
2019-03-20T16:04:01.782Z,69.93
2019-03-20T16:06:27.679Z,69.94
2019-03-20T16:08:56.689Z,70.00
2019-03-20T16:11:21.319Z,70.02
2019-03-20T16:13:47.307Z,70.09
2019-03-20T16:16:13.184Z,70.10
2019-03-20T16:18:39.044Z,70.02
2019-03-20T16:21:04.932Z,70.09
2019-03-20T16:23:30.792Z,70.12
2019-03-20T16:25:56.738Z,70.05
2019-03-20T16:28:22.705Z,70.11
2019-03-20T16:30:48.670Z,70.12
2019-03-20T16:33:14.539Z,70.12
2019-03-20T16:35:40.424Z,70.17
2019-03-20T16:38:07.160Z,70.15
2019-03-20T16:40:33.999Z,70.16
2019-03-20T16:42:59.989Z,70.18
2019-03-20T16:45:32.352Z,70.13
2019-03-20T16:47:58.333Z,70.09
2019-03-20T16:50:25.310Z,70.08
2019-03-20T16:52:51.246Z,70.10
2019-03-20T16:55:17.223Z,70.12
2019-03-20T16:57:43.168Z,70.17
2019-03-20T17:00:25.845Z,70.20
2019-03-20T17:02:51.822Z,70.21
2019-03-20T17:05:17.773Z,70.09
2019-03-20T17:07:44.773Z,70.15
2019-03-20T17:10:12.130Z,70.24
2019-03-20T17:12:38.141Z,70.30
2019-03-20T17:15:05.940Z,70.33
2019-03-20T17:17:31.783Z,70.41
2019-03-20T17:19:57.659Z,70.39
2019-03-20T17:22:23.534Z,70.51
2019-03-20T17:24:49.403Z,70.55
2019-03-20T17:27:15.247Z,70.52
2019-03-20T17:29:41.133Z,70.56
2019-03-20T17:32:07.101Z,70.62
2019-03-20T17:34:33.143Z,70.56
2019-03-20T17:36:59.014Z,70.48
2019-03-20T17:39:24.859Z,70.57
2019-03-20T17:41:50.939Z,70.57
2019-03-20T17:44:16.811Z,70.58
2019-03-20T17:46:42.762Z,70.57
2019-03-20T17:49:08.661Z,70.61
2019-03-20T17:51:34.517Z,70.65
2019-03-20T17:54:00.373Z,70.66
2019-03-20T17:56:26.539Z,70.58
2019-03-20T17:58:52.389Z,70.63
2019-03-20T18:01:18.236Z,70.85
2019-03-20T18:03:44.126Z,70.89
2019-03-20T18:06:09.981Z,70.84
2019-03-20T18:08:35.822Z,70.86
2019-03-20T18:11:01.698Z,70.82
2019-03-20T18:13:27.748Z,70.75
2019-03-20T18:15:53.991Z,70.55
2019-03-20T18:18:19.950Z,70.46
2019-03-20T18:20:45.819Z,70.31
2019-03-20T18:23:11.866Z,70.15
2019-03-20T18:25:37.737Z,70.06
2019-03-20T18:28:03.823Z,70.00
2019-03-20T18:30:30.736Z,69.98
2019-03-20T18:32:56.725Z,69.93
2019-03-20T18:38:11.143Z,69.89
2019-03-20T18:40:37.110Z,69.95
2019-03-20T18:43:03.269Z,69.93
2019-03-20T18:45:29.197Z,69.96
2019-03-20T18:47:55.167Z,69.91
2019-03-20T18:50:21.829Z,69.85
2019-03-20T18:52:48.042Z,69.90
2019-03-20T18:55:14.405Z,69.92
2019-03-20T18:57:42.536Z,69.94
2019-03-20T19:00:12.821Z,69.93
2019-03-20T19:02:38.786Z,69.92
2019-03-20T19:05:06.545Z,69.91
2019-03-20T19:07:32.512Z,69.90
2019-03-20T19:09:58.528Z,69.80
2019-03-20T19:12:24.523Z,69.79
2019-03-20T19:14:50.484Z,69.68
2019-03-20T19:17:16.370Z,69.67
2019-03-20T19:19:42.255Z,69.66
2019-03-20T19:22:08.112Z,69.63
2019-03-20T19:24:33.974Z,69.65
2019-03-20T19:26:59.969Z,69.68
2019-03-20T19:29:25.838Z,69.65
2019-03-20T19:31:51.763Z,69.60
2019-03-20T19:34:17.666Z,69.61
2019-03-20T19:36:43.510Z,69.59
2019-03-20T19:39:09.367Z,69.58
2019-03-20T19:41:35.264Z,69.60
2019-03-20T19:44:01.369Z,69.62
2019-03-20T19:46:27.228Z,69.60
2019-03-20T19:48:53.231Z,69.68
2019-03-20T19:51:19.098Z,69.62
2019-03-20T19:53:44.979Z,69.63
2019-03-20T19:56:10.929Z,69.75
2019-03-20T19:58:36.788Z,69.79
2019-03-20T20:01:02.856Z,69.80
2019-03-20T20:03:31.180Z,69.77
2019-03-20T20:05:57.041Z,69.86
2019-03-20T20:08:22.892Z,69.82
2019-03-20T20:10:48.792Z,69.89
2019-03-20T20:13:14.730Z,69.94
2019-03-20T20:15:40.595Z,69.89
2019-03-20T20:18:06.447Z,70.01
2019-03-20T20:20:36.107Z,70.07
2019-03-20T20:23:04.288Z,70.02
2019-03-20T20:25:29.784Z,70.08
2019-03-20T20:27:55.745Z,70.12
2019-03-20T20:30:21.600Z,70.08
2019-03-20T20:32:47.702Z,70.15
2019-03-20T20:35:14.159Z,70.05
2019-03-20T20:37:40.005Z,70.09
2019-03-20T20:40:07.470Z,70.12
2019-03-20T20:42:42.603Z,70.14
2019-03-20T20:45:01.409Z,70.25
2019-03-20T20:47:27.267Z,70.17
2019-03-20T20:49:53.124Z,70.15
2019-03-20T20:52:19.810Z,70.21
2019-03-20T20:54:45.779Z,70.23
2019-03-20T20:57:11.753Z,70.18
2019-03-20T20:59:37.627Z,70.15
2019-03-20T21:02:03.593Z,70.18
2019-03-20T21:04:29.440Z,70.20
2019-03-20T21:06:55.323Z,70.18
2019-03-20T21:09:21.181Z,70.11
2019-03-20T21:11:47.029Z,70.08
2019-03-20T21:14:13.014Z,70.17
2019-03-20T21:16:38.904Z,70.17
2019-03-20T21:19:09.689Z,70.15
2019-03-20T21:21:36.372Z,70.15
2019-03-20T21:24:20.447Z,70.06
2019-03-20T21:27:03.250Z,70.10
2019-03-20T21:29:36.785Z,70.00
2019-03-20T21:32:07.341Z,69.96
2019-03-20T21:34:51.787Z,69.99
2019-03-20T21:37:31.518Z,69.92
2019-03-20T21:39:57.387Z,69.99
2019-03-20T21:42:31.205Z,69.95
2019-03-20T21:45:11.027Z,69.96
2019-03-20T21:47:37.309Z,69.90
2019-03-20T21:50:20.290Z,69.92
2019-03-20T21:52:46.256Z,70.09
2019-03-20T21:55:16.746Z,70.06
2019-03-20T21:57:44.406Z,70.01
2019-03-20T22:00:28.537Z,70.04
2019-03-20T22:02:54.463Z,70.10
2019-03-20T22:05:23.276Z,70.06
2019-03-20T22:07:49.312Z,70.04
2019-03-20T22:10:21.131Z,69.94
2019-03-20T22:12:48.898Z,69.90
2019-03-20T22:15:16.738Z,69.90
2019-03-20T22:17:59.807Z,69.86
2019-03-20T22:20:33.396Z,69.86
2019-03-20T22:23:07.009Z,69.85
2019-03-20T22:25:51.699Z,69.91
2019-03-20T22:28:35.903Z,69.76
2019-03-20T22:31:01.766Z,69.85
2019-03-20T22:33:46.195Z,69.85
2019-03-20T22:36:12.181Z,69.97
2019-03-20T22:38:39.938Z,70.15
2019-03-20T22:41:10.713Z,70.10
2019-03-20T22:43:38.495Z,70.11
2019-03-20T22:46:21.206Z,70.12
2019-03-20T22:48:58.078Z,70.18
2019-03-20T22:51:31.918Z,70.11
2019-03-20T22:54:11.592Z,70.09
2019-03-20T22:56:56.034Z,70.07
2019-03-20T22:59:21.897Z,70.08
2019-03-20T23:01:52.447Z,70.09
2019-03-20T23:04:20.208Z,69.99
2019-03-20T23:06:46.170Z,69.93
2019-03-20T23:09:12.146Z,69.89
2019-03-20T23:11:38.134Z,69.87
2019-03-20T23:14:04.182Z,69.82
2019-03-20T23:16:30.035Z,69.75
2019-03-20T23:18:55.924Z,69.79
2019-03-20T23:21:21.907Z,69.78
2019-03-20T23:23:47.780Z,69.76
2019-03-20T23:26:13.651Z,69.73
2019-03-20T23:28:39.818Z,69.74
2019-03-20T23:31:05.778Z,69.79
2019-03-20T23:33:31.670Z,69.71
2019-03-20T23:35:57.520Z,69.70
2019-03-20T23:38:23.380Z,69.73
2019-03-20T23:40:49.242Z,69.68
2019-03-20T23:43:15.216Z,69.63
2019-03-20T23:45:41.099Z,69.58
2019-03-20T23:48:16.940Z,69.66
2019-03-20T23:50:42.799Z,69.71
2019-03-20T23:53:08.667Z,69.65
2019-03-20T23:55:34.640Z,69.60
2019-03-20T23:58:00.499Z,69.52
